sensor_id;sensor_type;location;lat;lon;timestamp;temperature;humidity
18797;DHT22;9526;52.612;13.300;2023-08-30T00:02:05;15.50;99.90
18797;DHT22;9526;52.612;13.300;2023-08-30T00:04:30;15.50;99.90
18797;DHT22;9526;52.612;13.300;2023-08-30T00:06:54;15.50;99.90
18797;DHT22;9526;52.612;13.300;2023-08-30T00:09:18;15.40;99.90
18797;DHT22;9526;52.612;13.300;2023-08-30T00:11:41;15.50;99.90
18797;DHT22;9526;52.612;13.300;2023-08-30T00:14:07;15.40;99.90
18797;DHT22;9526;52.612;13.300;2023-08-30T00:16:30;15.40;99.90
18797;DHT22;9526;52.612;13.300;2023-08-30T00:18:54;15.40;99.90
18797;DHT22;9526;52.612;13.300;2023-08-30T00:21:18;15.40;99.90
18797;DHT22;9526;52.612;13.300;2023-08-30T00:23:42;15.30;99.90
18797;DHT22;9526;52.612;13.300;2023-08-30T00:26:06;15.40;99.90
18797;DHT22;9526;52.612;13.300;2023-08-30T00:28:30;15.30;99.90
18797;DHT22;9526;52.612;13.300;2023-08-30T00:30:56;15.30;99.90
18797;DHT22;9526;52.612;13.300;2023-08-30T00:33:20;15.30;99.90
18797;DHT22;9526;52.612;13.300;2023-08-30T00:35:43;15.30;99.90
18797;DHT22;9526;52.612;13.300;2023-08-30T00:38:06;15.30;99.90
18797;DHT22;9526;52.612;13.300;2023-08-30T00:40:38;15.20;99.90
18797;DHT22;9526;52.612;13.300;2023-08-30T00:43:04;15.30;99.90
18797;DHT22;9526;52.612;13.300;2023-08-30T00:45:28;15.30;99.90
18797;DHT22;9526;52.612;13.300;2023-08-30T00:47:53;15.30;99.90
18797;DHT22;9526;52.612;13.300;2023-08-30T00:50:17;15.30;99.90
18797;DHT22;9526;52.612;13.300;2023-08-30T00:52:41;15.20;99.90
18797;DHT22;9526;52.612;13.300;2023-08-30T00:55:06;15.20;99.90
18797;DHT22;9526;52.612;13.300;2023-08-30T00:57:31;15.20;99.90
18797;DHT22;9526;52.612;13.300;2023-08-30T00:59:55;15.20;99.90
18797;DHT22;9526;52.612;13.300;2023-08-30T01:02:18;15.20;99.90
18797;DHT22;9526;52.612;13.300;2023-08-30T01:04:45;15.20;99.90
18797;DHT22;9526;52.612;13.300;2023-08-30T01:07:09;15.20;99.90
18797;DHT22;9526;52.612;13.300;2023-08-30T01:09:32;15.20;99.90
18797;DHT22;9526;52.612;13.300;2023-08-30T01:12:00;15.10;99.90
18797;DHT22;9526;52.612;13.300;2023-08-30T01:14:31;15.10;99.90
18797;DHT22;9526;52.612;13.300;2023-08-30T01:17:00;15.10;99.90
18797;DHT22;9526;52.612;13.300;2023-08-30T01:19:36;15.10;99.90
18797;DHT22;9526;52.612;13.300;2023-08-30T01:22:15;15.20;99.90
18797;DHT22;9526;52.612;13.300;2023-08-30T01:24:45;15.10;99.90
18797;DHT22;9526;52.612;13.300;2023-08-30T01:27:17;15.10;99.90
18797;DHT22;9526;52.612;13.300;2023-08-30T01:29:44;15.10;99.90
18797;DHT22;9526;52.612;13.300;2023-08-30T01:32:09;15.10;99.90
18797;DHT22;9526;52.612;13.300;2023-08-30T01:34:33;15.20;99.90
18797;DHT22;9526;52.612;13.300;2023-08-30T01:36:58;15.00;99.90
18797;DHT22;9526;52.612;13.300;2023-08-30T01:39:22;15.00;99.90
18797;DHT22;9526;52.612;13.300;2023-08-30T01:41:47;14.90;99.90
18797;DHT22;9526;52.612;13.300;2023-08-30T01:44:16;14.90;99.90
18797;DHT22;9526;52.612;13.300;2023-08-30T01:46:40;14.90;99.90
18797;DHT22;9526;52.612;13.300;2023-08-30T01:49:06;14.90;99.90
18797;DHT22;9526;52.612;13.300;2023-08-30T01:51:31;14.90;99.90
18797;DHT22;9526;52.612;13.300;2023-08-30T01:53:58;14.90;99.90
18797;DHT22;9526;52.612;13.300;2023-08-30T01:56:21;14.80;99.90
18797;DHT22;9526;52.612;13.300;2023-08-30T01:58:45;14.80;99.90
18797;DHT22;9526;52.612;13.300;2023-08-30T02:01:10;14.80;99.90
18797;DHT22;9526;52.612;13.300;2023-08-30T02:03:34;14.80;99.90
18797;DHT22;9526;52.612;13.300;2023-08-30T02:06:07;14.80;99.90
18797;DHT22;9526;52.612;13.300;2023-08-30T02:08:37;14.80;99.90
18797;DHT22;9526;52.612;13.300;2023-08-30T02:11:08;14.80;99.90
18797;DHT22;9526;52.612;13.300;2023-08-30T02:13:41;14.80;99.90
18797;DHT22;9526;52.612;13.300;2023-08-30T02:16:06;14.80;99.90
18797;DHT22;9526;52.612;13.300;2023-08-30T02:18:33;14.80;99.90
18797;DHT22;9526;52.612;13.300;2023-08-30T02:20:58;14.80;99.90
18797;DHT22;9526;52.612;13.300;2023-08-30T02:23:23;14.80;99.90
18797;DHT22;9526;52.612;13.300;2023-08-30T02:25:47;14.70;99.90
18797;DHT22;9526;52.612;13.300;2023-08-30T02:28:11;14.80;99.90
18797;DHT22;9526;52.612;13.300;2023-08-30T02:30:35;14.70;99.90
18797;DHT22;9526;52.612;13.300;2023-08-30T02:32:58;14.70;99.90
18797;DHT22;9526;52.612;13.300;2023-08-30T02:35:24;14.70;99.90
18797;DHT22;9526;52.612;13.300;2023-08-30T02:37:47;14.60;99.90
18797;DHT22;9526;52.612;13.300;2023-08-30T02:40:11;14.60;99.90
18797;DHT22;9526;52.612;13.300;2023-08-30T02:42:35;14.60;99.90
18797;DHT22;9526;52.612;13.300;2023-08-30T02:44:59;14.60;99.90
18797;DHT22;9526;52.612;13.300;2023-08-30T02:47:23;14.50;99.90
18797;DHT22;9526;52.612;13.300;2023-08-30T02:49:47;14.50;99.90
18797;DHT22;9526;52.612;13.300;2023-08-30T02:52:12;14.50;99.90
18797;DHT22;9526;52.612;13.300;2023-08-30T02:54:36;14.40;99.90
18797;DHT22;9526;52.612;13.300;2023-08-30T02:57:00;14.40;99.90
18797;DHT22;9526;52.612;13.300;2023-08-30T02:59:24;14.40;99.90
18797;DHT22;9526;52.612;13.300;2023-08-30T03:01:47;14.30;99.90
18797;DHT22;9526;52.612;13.300;2023-08-30T03:04:13;14.30;99.90
18797;DHT22;9526;52.612;13.300;2023-08-30T03:06:37;14.30;99.90
18797;DHT22;9526;52.612;13.300;2023-08-30T03:09:02;14.30;99.90
18797;DHT22;9526;52.612;13.300;2023-08-30T03:11:28;14.30;99.90
18797;DHT22;9526;52.612;13.300;2023-08-30T03:13:53;14.20;99.90
18797;DHT22;9526;52.612;13.300;2023-08-30T03:16:17;14.20;99.90
18797;DHT22;9526;52.612;13.300;2023-08-30T03:18:42;14.10;99.90
18797;DHT22;9526;52.612;13.300;2023-08-30T03:21:07;14.10;99.90
18797;DHT22;9526;52.612;13.300;2023-08-30T03:23:31;14.10;99.90
18797;DHT22;9526;52.612;13.300;2023-08-30T03:25:57;14.10;99.90
18797;DHT22;9526;52.612;13.300;2023-08-30T03:28:21;14.00;99.90
18797;DHT22;9526;52.612;13.300;2023-08-30T03:30:45;14.00;99.90
18797;DHT22;9526;52.612;13.300;2023-08-30T03:33:08;13.90;99.90
18797;DHT22;9526;52.612;13.300;2023-08-30T03:35:34;13.90;99.90
18797;DHT22;9526;52.612;13.300;2023-08-30T03:37:59;13.90;99.90
18797;DHT22;9526;52.612;13.300;2023-08-30T03:40:23;13.90;99.90
18797;DHT22;9526;52.612;13.300;2023-08-30T03:42:48;13.90;99.90
18797;DHT22;9526;52.612;13.300;2023-08-30T03:45:12;13.90;99.90
18797;DHT22;9526;52.612;13.300;2023-08-30T03:47:36;13.80;99.90
18797;DHT22;9526;52.612;13.300;2023-08-30T03:50:00;13.80;99.90
18797;DHT22;9526;52.612;13.300;2023-08-30T03:52:24;13.80;99.90
18797;DHT22;9526;52.612;13.300;2023-08-30T03:54:48;13.80;99.90
18797;DHT22;9526;52.612;13.300;2023-08-30T03:57:11;13.70;99.90
18797;DHT22;9526;52.612;13.300;2023-08-30T03:59:36;13.70;99.90
18797;DHT22;9526;52.612;13.300;2023-08-30T04:02:00;13.70;99.90
18797;DHT22;9526;52.612;13.300;2023-08-30T04:04:24;13.70;99.90
18797;DHT22;9526;52.612;13.300;2023-08-30T04:06:48;13.70;99.90
18797;DHT22;9526;52.612;13.300;2023-08-30T04:09:11;13.70;99.90
18797;DHT22;9526;52.612;13.300;2023-08-30T04:11:35;13.70;99.90
18797;DHT22;9526;52.612;13.300;2023-08-30T04:13:59;13.70;99.90
18797;DHT22;9526;52.612;13.300;2023-08-30T04:16:24;13.70;99.90
18797;DHT22;9526;52.612;13.300;2023-08-30T04:18:48;13.70;99.90
18797;DHT22;9526;52.612;13.300;2023-08-30T04:21:11;13.70;99.90
18797;DHT22;9526;52.612;13.300;2023-08-30T04:23:35;13.80;99.90
18797;DHT22;9526;52.612;13.300;2023-08-30T04:25:59;13.80;99.90
18797;DHT22;9526;52.612;13.300;2023-08-30T04:28:23;13.80;99.90
18797;DHT22;9526;52.612;13.300;2023-08-30T04:30:49;13.80;99.90
18797;DHT22;9526;52.612;13.300;2023-08-30T04:33:14;13.80;99.90
18797;DHT22;9526;52.612;13.300;2023-08-30T04:35:38;13.80;99.90
18797;DHT22;9526;52.612;13.300;2023-08-30T04:38:02;13.80;99.90
18797;DHT22;9526;52.612;13.300;2023-08-30T04:40:26;13.80;99.90
18797;DHT22;9526;52.612;13.300;2023-08-30T04:42:50;13.90;99.90
18797;DHT22;9526;52.612;13.300;2023-08-30T04:45:14;13.90;99.90
18797;DHT22;9526;52.612;13.300;2023-08-30T04:47:38;13.90;99.90
18797;DHT22;9526;52.612;13.300;2023-08-30T04:50:03;13.90;99.90
18797;DHT22;9526;52.612;13.300;2023-08-30T04:52:28;14.00;99.90
18797;DHT22;9526;52.612;13.300;2023-08-30T04:54:52;14.00;99.90
18797;DHT22;9526;52.612;13.300;2023-08-30T04:57:18;14.00;99.90
18797;DHT22;9526;52.612;13.300;2023-08-30T04:59:42;14.10;99.90
18797;DHT22;9526;52.612;13.300;2023-08-30T05:02:07;14.10;99.90
18797;DHT22;9526;52.612;13.300;2023-08-30T05:04:37;14.20;99.90
18797;DHT22;9526;52.612;13.300;2023-08-30T05:07:02;14.20;99.90
18797;DHT22;9526;52.612;13.300;2023-08-30T05:09:26;14.20;99.90
18797;DHT22;9526;52.612;13.300;2023-08-30T05:11:50;14.30;99.90
18797;DHT22;9526;52.612;13.300;2023-08-30T05:14:14;14.40;99.90
18797;DHT22;9526;52.612;13.300;2023-08-30T05:16:38;14.40;99.90
18797;DHT22;9526;52.612;13.300;2023-08-30T05:19:03;14.40;99.90
18797;DHT22;9526;52.612;13.300;2023-08-30T05:21:26;14.50;99.90
18797;DHT22;9526;52.612;13.300;2023-08-30T05:23:52;14.60;99.90
18797;DHT22;9526;52.612;13.300;2023-08-30T05:26:15;14.60;99.90
18797;DHT22;9526;52.612;13.300;2023-08-30T05:28:41;14.70;99.90
18797;DHT22;9526;52.612;13.300;2023-08-30T05:31:05;14.70;99.90
18797;DHT22;9526;52.612;13.300;2023-08-30T05:34:07;14.80;99.90
18797;DHT22;9526;52.612;13.300;2023-08-30T05:36:49;14.90;99.90
18797;DHT22;9526;52.612;13.300;2023-08-30T05:39:38;15.00;99.90
18797;DHT22;9526;52.612;13.300;2023-08-30T05:42:01;15.10;99.90
18797;DHT22;9526;52.612;13.300;2023-08-30T05:44:25;15.20;99.90
18797;DHT22;9526;52.612;13.300;2023-08-30T05:46:50;15.20;99.90
18797;DHT22;9526;52.612;13.300;2023-08-30T05:49:13;15.30;99.90
18797;DHT22;9526;52.612;13.300;2023-08-30T05:51:39;15.40;99.90
18797;DHT22;9526;52.612;13.300;2023-08-30T05:54:03;15.50;99.90
18797;DHT22;9526;52.612;13.300;2023-08-30T05:56:29;15.60;99.90
18797;DHT22;9526;52.612;13.300;2023-08-30T05:58:54;15.60;99.90
18797;DHT22;9526;52.612;13.300;2023-08-30T06:01:18;15.70;99.90
18797;DHT22;9526;52.612;13.300;2023-08-30T06:03:42;15.70;99.90
18797;DHT22;9526;52.612;13.300;2023-08-30T06:06:08;15.90;99.90
18797;DHT22;9526;52.612;13.300;2023-08-30T06:08:31;15.90;99.90
18797;DHT22;9526;52.612;13.300;2023-08-30T06:10:55;15.90;99.90
18797;DHT22;9526;52.612;13.300;2023-08-30T06:13:20;15.90;99.90
18797;DHT22;9526;52.612;13.300;2023-08-30T06:15:44;16.00;99.90
18797;DHT22;9526;52.612;13.300;2023-08-30T06:18:07;16.10;99.90
18797;DHT22;9526;52.612;13.300;2023-08-30T06:20:32;16.10;99.90
18797;DHT22;9526;52.612;13.300;2023-08-30T06:22:58;16.20;99.90
18797;DHT22;9526;52.612;13.300;2023-08-30T06:25:21;16.40;99.90
18797;DHT22;9526;52.612;13.300;2023-08-30T06:27:56;16.50;99.90
18797;DHT22;9526;52.612;13.300;2023-08-30T06:30:22;16.60;99.90
18797;DHT22;9526;52.612;13.300;2023-08-30T06:32:45;16.70;99.90
18797;DHT22;9526;52.612;13.300;2023-08-30T06:35:10;16.70;99.90
18797;DHT22;9526;52.612;13.300;2023-08-30T06:37:34;16.80;99.90
18797;DHT22;9526;52.612;13.300;2023-08-30T06:39:57;16.90;99.90
18797;DHT22;9526;52.612;13.300;2023-08-30T06:42:21;16.90;99.90
18797;DHT22;9526;52.612;13.300;2023-08-30T06:44:46;17.00;99.90
18797;DHT22;9526;52.612;13.300;2023-08-30T06:47:11;17.00;99.90
18797;DHT22;9526;52.612;13.300;2023-08-30T06:49:35;17.10;99.90
18797;DHT22;9526;52.612;13.300;2023-08-30T06:51:59;17.20;99.90
18797;DHT22;9526;52.612;13.300;2023-08-30T06:54:23;17.20;99.90
18797;DHT22;9526;52.612;13.300;2023-08-30T06:56:57;17.20;99.90
18797;DHT22;9526;52.612;13.300;2023-08-30T06:59:21;17.30;99.90
18797;DHT22;9526;52.612;13.300;2023-08-30T07:01:45;17.40;99.90
18797;DHT22;9526;52.612;13.300;2023-08-30T07:04:10;17.30;99.90
18797;DHT22;9526;52.612;13.300;2023-08-30T07:06:34;17.40;99.90
18797;DHT22;9526;52.612;13.300;2023-08-30T07:08:57;17.40;99.90
18797;DHT22;9526;52.612;13.300;2023-08-30T07:11:21;17.50;99.90
18797;DHT22;9526;52.612;13.300;2023-08-30T07:13:55;17.50;99.90
18797;DHT22;9526;52.612;13.300;2023-08-30T07:16:19;17.70;99.90
18797;DHT22;9526;52.612;13.300;2023-08-30T07:18:43;17.50;99.90
18797;DHT22;9526;52.612;13.300;2023-08-30T07:21:08;17.60;99.90
18797;DHT22;9526;52.612;13.300;2023-08-30T07:23:31;17.60;99.90
18797;DHT22;9526;52.612;13.300;2023-08-30T07:25:55;17.60;99.90
18797;DHT22;9526;52.612;13.300;2023-08-30T07:28:19;17.60;99.90
18797;DHT22;9526;52.612;13.300;2023-08-30T07:30:42;17.60;99.90
18797;DHT22;9526;52.612;13.300;2023-08-30T07:33:06;17.60;99.90
18797;DHT22;9526;52.612;13.300;2023-08-30T07:35:30;17.60;99.90
18797;DHT22;9526;52.612;13.300;2023-08-30T07:37:56;17.70;99.90
18797;DHT22;9526;52.612;13.300;2023-08-30T07:40:20;17.70;99.90
18797;DHT22;9526;52.612;13.300;2023-08-30T07:42:46;17.70;99.90
18797;DHT22;9526;52.612;13.300;2023-08-30T07:45:10;17.70;99.90
18797;DHT22;9526;52.612;13.300;2023-08-30T07:47:34;17.70;99.90
18797;DHT22;9526;52.612;13.300;2023-08-30T07:49:58;17.70;99.90
18797;DHT22;9526;52.612;13.300;2023-08-30T07:52:22;17.70;99.90
18797;DHT22;9526;52.612;13.300;2023-08-30T07:55:06;17.80;99.90
18797;DHT22;9526;52.612;13.300;2023-08-30T07:57:31;17.80;99.90
18797;DHT22;9526;52.612;13.300;2023-08-30T07:59:55;17.80;99.90
18797;DHT22;9526;52.612;13.300;2023-08-30T08:02:18;17.80;99.90
18797;DHT22;9526;52.612;13.300;2023-08-30T08:04:42;17.90;99.90
18797;DHT22;9526;52.612;13.300;2023-08-30T08:07:06;18.00;99.90
18797;DHT22;9526;52.612;13.300;2023-08-30T08:09:30;18.00;99.90
18797;DHT22;9526;52.612;13.300;2023-08-30T08:11:55;17.90;99.90
18797;DHT22;9526;52.612;13.300;2023-08-30T08:14:19;17.90;99.90
18797;DHT22;9526;52.612;13.300;2023-08-30T08:16:43;18.00;99.90
18797;DHT22;9526;52.612;13.300;2023-08-30T08:19:07;18.20;99.90
18797;DHT22;9526;52.612;13.300;2023-08-30T08:21:31;18.20;99.90
18797;DHT22;9526;52.612;13.300;2023-08-30T08:23:56;18.30;99.90
18797;DHT22;9526;52.612;13.300;2023-08-30T08:26:21;18.30;99.90
18797;DHT22;9526;52.612;13.300;2023-08-30T08:28:48;18.50;99.90
18797;DHT22;9526;52.612;13.300;2023-08-30T08:31:13;18.50;99.90
18797;DHT22;9526;52.612;13.300;2023-08-30T08:33:39;18.40;99.90
18797;DHT22;9526;52.612;13.300;2023-08-30T08:36:04;18.50;99.90
18797;DHT22;9526;52.612;13.300;2023-08-30T08:38:29;18.60;99.90
18797;DHT22;9526;52.612;13.300;2023-08-30T08:41:02;18.70;99.90
18797;DHT22;9526;52.612;13.300;2023-08-30T08:43:29;18.80;99.90
18797;DHT22;9526;52.612;13.300;2023-08-30T08:45:59;18.90;99.90
18797;DHT22;9526;52.612;13.300;2023-08-30T08:48:26;19.00;99.90
18797;DHT22;9526;52.612;13.300;2023-08-30T08:50:53;19.00;99.90
18797;DHT22;9526;52.612;13.300;2023-08-30T08:53:18;19.10;99.90
18797;DHT22;9526;52.612;13.300;2023-08-30T08:55:43;19.20;99.90
18797;DHT22;9526;52.612;13.300;2023-08-30T08:58:07;19.30;99.90
18797;DHT22;9526;52.612;13.300;2023-08-30T09:00:31;19.50;99.90
18797;DHT22;9526;52.612;13.300;2023-08-30T09:02:57;19.50;99.90
18797;DHT22;9526;52.612;13.300;2023-08-30T09:05:21;19.40;99.90
18797;DHT22;9526;52.612;13.300;2023-08-30T09:07:45;19.40;99.90
18797;DHT22;9526;52.612;13.300;2023-08-30T09:10:10;19.40;99.90
18797;DHT22;9526;52.612;13.300;2023-08-30T09:12:35;19.60;99.90
18797;DHT22;9526;52.612;13.300;2023-08-30T09:14:59;19.80;99.90
18797;DHT22;9526;52.612;13.300;2023-08-30T09:17:23;19.90;99.90
18797;DHT22;9526;52.612;13.300;2023-08-30T09:19:48;20.00;99.90
18797;DHT22;9526;52.612;13.300;2023-08-30T09:22:12;20.00;99.90
18797;DHT22;9526;52.612;13.300;2023-08-30T09:24:39;20.00;99.90
18797;DHT22;9526;52.612;13.300;2023-08-30T09:27:04;20.10;99.90
18797;DHT22;9526;52.612;13.300;2023-08-30T09:29:27;20.20;99.90
18797;DHT22;9526;52.612;13.300;2023-08-30T09:31:52;20.20;99.90
18797;DHT22;9526;52.612;13.300;2023-08-30T09:34:16;19.90;99.90
18797;DHT22;9526;52.612;13.300;2023-08-30T09:36:41;20.00;99.90
18797;DHT22;9526;52.612;13.300;2023-08-30T09:39:08;20.10;99.90
18797;DHT22;9526;52.612;13.300;2023-08-30T09:41:33;20.10;99.90
18797;DHT22;9526;52.612;13.300;2023-08-30T09:43:57;20.10;99.90
18797;DHT22;9526;52.612;13.300;2023-08-30T09:46:41;20.40;99.90
18797;DHT22;9526;52.612;13.300;2023-08-30T09:49:13;20.60;99.90
18797;DHT22;9526;52.612;13.300;2023-08-30T09:51:38;20.90;99.90
18797;DHT22;9526;52.612;13.300;2023-08-30T09:54:06;21.00;99.90
18797;DHT22;9526;52.612;13.300;2023-08-30T09:56:54;21.10;99.90
18797;DHT22;9526;52.612;13.300;2023-08-30T09:59:20;21.10;99.90
18797;DHT22;9526;52.612;13.300;2023-08-30T10:01:47;21.40;99.90
18797;DHT22;9526;52.612;13.300;2023-08-30T10:04:11;21.50;99.90
18797;DHT22;9526;52.612;13.300;2023-08-30T10:06:35;21.60;99.90
18797;DHT22;9526;52.612;13.300;2023-08-30T10:09:00;21.90;99.90
18797;DHT22;9526;52.612;13.300;2023-08-30T10:11:27;21.60;99.90
18797;DHT22;9526;52.612;13.300;2023-08-30T10:13:52;21.80;99.90
18797;DHT22;9526;52.612;13.300;2023-08-30T10:16:22;22.20;99.90
18797;DHT22;9526;52.612;13.300;2023-08-30T10:18:52;22.60;99.90
18797;DHT22;9526;52.612;13.300;2023-08-30T10:21:26;22.70;99.90
18797;DHT22;9526;52.612;13.300;2023-08-30T10:23:51;22.40;99.90
18797;DHT22;9526;52.612;13.300;2023-08-30T10:26:18;22.10;99.90
18797;DHT22;9526;52.612;13.300;2023-08-30T10:28:44;21.90;99.90
18797;DHT22;9526;52.612;13.300;2023-08-30T10:31:08;22.10;99.90
18797;DHT22;9526;52.612;13.300;2023-08-30T10:33:32;22.10;99.90
18797;DHT22;9526;52.612;13.300;2023-08-30T10:36:04;22.00;99.90
18797;DHT22;9526;52.612;13.300;2023-08-30T10:38:29;22.20;99.90
18797;DHT22;9526;52.612;13.300;2023-08-30T10:40:53;22.50;99.90
18797;DHT22;9526;52.612;13.300;2023-08-30T10:43:16;22.50;99.90
18797;DHT22;9526;52.612;13.300;2023-08-30T10:45:42;22.80;99.90
18797;DHT22;9526;52.612;13.300;2023-08-30T10:48:06;22.60;99.90
18797;DHT22;9526;52.612;13.300;2023-08-30T10:50:31;22.80;99.90
18797;DHT22;9526;52.612;13.300;2023-08-30T10:52:55;23.10;99.90
18797;DHT22;9526;52.612;13.300;2023-08-30T10:55:23;23.20;99.90
18797;DHT22;9526;52.612;13.300;2023-08-30T10:57:58;23.40;99.90
18797;DHT22;9526;52.612;13.300;2023-08-30T11:00:23;23.40;99.90
18797;DHT22;9526;52.612;13.300;2023-08-30T11:02:50;23.40;99.90
18797;DHT22;9526;52.612;13.300;2023-08-30T11:05:16;23.30;99.90
18797;DHT22;9526;52.612;13.300;2023-08-30T11:07:41;23.40;99.90
18797;DHT22;9526;52.612;13.300;2023-08-30T11:10:05;23.50;99.90
18797;DHT22;9526;52.612;13.300;2023-08-30T11:12:30;23.60;99.90
18797;DHT22;9526;52.612;13.300;2023-08-30T11:14:54;23.80;99.90
18797;DHT22;9526;52.612;13.300;2023-08-30T11:17:18;23.80;99.90
18797;DHT22;9526;52.612;13.300;2023-08-30T11:19:43;23.80;99.90
18797;DHT22;9526;52.612;13.300;2023-08-30T11:22:07;23.80;99.90
18797;DHT22;9526;52.612;13.300;2023-08-30T11:24:31;23.80;99.90
18797;DHT22;9526;52.612;13.300;2023-08-30T11:26:57;23.90;99.90
18797;DHT22;9526;52.612;13.300;2023-08-30T11:29:20;23.90;99.90
18797;DHT22;9526;52.612;13.300;2023-08-30T11:31:44;24.00;99.90
18797;DHT22;9526;52.612;13.300;2023-08-30T11:34:09;24.10;99.90
18797;DHT22;9526;52.612;13.300;2023-08-30T11:36:35;24.10;99.90
18797;DHT22;9526;52.612;13.300;2023-08-30T11:39:00;24.30;99.90
18797;DHT22;9526;52.612;13.300;2023-08-30T11:41:24;23.90;99.90
18797;DHT22;9526;52.612;13.300;2023-08-30T11:43:48;23.60;99.90
18797;DHT22;9526;52.612;13.300;2023-08-30T11:46:12;23.60;99.90
18797;DHT22;9526;52.612;13.300;2023-08-30T11:48:35;23.80;99.90
18797;DHT22;9526;52.612;13.300;2023-08-30T11:51:00;23.70;99.90
18797;DHT22;9526;52.612;13.300;2023-08-30T11:53:25;24.00;99.90
18797;DHT22;9526;52.612;13.300;2023-08-30T11:55:49;23.80;99.90
18797;DHT22;9526;52.612;13.300;2023-08-30T11:58:12;23.80;99.90
18797;DHT22;9526;52.612;13.300;2023-08-30T12:00:36;24.00;99.90
18797;DHT22;9526;52.612;13.300;2023-08-30T12:03:00;24.10;99.90
18797;DHT22;9526;52.612;13.300;2023-08-30T12:05:24;24.10;99.90
18797;DHT22;9526;52.612;13.300;2023-08-30T12:07:47;24.10;99.90
18797;DHT22;9526;52.612;13.300;2023-08-30T12:10:13;24.10;99.90
18797;DHT22;9526;52.612;13.300;2023-08-30T12:12:37;24.20;99.90
18797;DHT22;9526;52.612;13.300;2023-08-30T12:15:01;24.00;99.90
18797;DHT22;9526;52.612;13.300;2023-08-30T12:17:25;23.90;99.90
18797;DHT22;9526;52.612;13.300;2023-08-30T12:19:55;23.80;99.90
18797;DHT22;9526;52.612;13.300;2023-08-30T12:22:19;23.70;99.90
18797;DHT22;9526;52.612;13.300;2023-08-30T12:24:43;23.90;99.90
18797;DHT22;9526;52.612;13.300;2023-08-30T12:27:08;23.90;99.90
18797;DHT22;9526;52.612;13.300;2023-08-30T12:29:32;24.10;99.90
18797;DHT22;9526;52.612;13.300;2023-08-30T12:31:56;24.20;99.90
18797;DHT22;9526;52.612;13.300;2023-08-30T12:34:19;24.10;99.90
18797;DHT22;9526;52.612;13.300;2023-08-30T12:36:43;24.10;99.90
18797;DHT22;9526;52.612;13.300;2023-08-30T12:39:06;24.20;99.90
18797;DHT22;9526;52.612;13.300;2023-08-30T12:41:30;24.10;99.90
18797;DHT22;9526;52.612;13.300;2023-08-30T12:43:56;23.80;99.90
18797;DHT22;9526;52.612;13.300;2023-08-30T12:46:20;23.60;99.90
18797;DHT22;9526;52.612;13.300;2023-08-30T12:48:44;23.50;99.90
18797;DHT22;9526;52.612;13.300;2023-08-30T12:51:07;23.60;99.90
18797;DHT22;9526;52.612;13.300;2023-08-30T12:53:31;23.70;99.90
18797;DHT22;9526;52.612;13.300;2023-08-30T12:55:55;23.50;99.90
18797;DHT22;9526;52.612;13.300;2023-08-30T12:58:18;23.50;99.90
18797;DHT22;9526;52.612;13.300;2023-08-30T13:00:43;23.60;99.90
18797;DHT22;9526;52.612;13.300;2023-08-30T13:03:07;23.60;99.90
18797;DHT22;9526;52.612;13.300;2023-08-30T13:05:32;23.60;99.90
18797;DHT22;9526;52.612;13.300;2023-08-30T13:07:56;23.80;99.90
18797;DHT22;9526;52.612;13.300;2023-08-30T13:10:20;23.80;99.90
18797;DHT22;9526;52.612;13.300;2023-08-30T13:12:44;23.60;99.90
18797;DHT22;9526;52.612;13.300;2023-08-30T13:15:08;23.40;99.90
18797;DHT22;9526;52.612;13.300;2023-08-30T13:17:34;23.60;99.90
18797;DHT22;9526;52.612;13.300;2023-08-30T13:19:57;23.80;99.90
18797;DHT22;9526;52.612;13.300;2023-08-30T13:22:21;24.00;99.90
18797;DHT22;9526;52.612;13.300;2023-08-30T13:24:45;23.70;99.90
18797;DHT22;9526;52.612;13.300;2023-08-30T13:27:09;23.70;99.90
18797;DHT22;9526;52.612;13.300;2023-08-30T13:29:33;24.00;99.90
18797;DHT22;9526;52.612;13.300;2023-08-30T13:31:57;24.10;99.90
18797;DHT22;9526;52.612;13.300;2023-08-30T13:34:22;24.10;99.90
18797;DHT22;9526;52.612;13.300;2023-08-30T13:36:46;23.80;99.90
18797;DHT22;9526;52.612;13.300;2023-08-30T13:39:10;23.80;99.90
18797;DHT22;9526;52.612;13.300;2023-08-30T13:41:34;23.90;99.90
18797;DHT22;9526;52.612;13.300;2023-08-30T13:43:58;23.80;99.90
18797;DHT22;9526;52.612;13.300;2023-08-30T13:46:23;23.90;99.90
18797;DHT22;9526;52.612;13.300;2023-08-30T13:48:47;24.20;99.90
18797;DHT22;9526;52.612;13.300;2023-08-30T13:51:12;24.40;99.90
18797;DHT22;9526;52.612;13.300;2023-08-30T13:53:36;24.60;99.90
18797;DHT22;9526;52.612;13.300;2023-08-30T13:56:00;24.60;99.90
18797;DHT22;9526;52.612;13.300;2023-08-30T13:58:23;24.40;99.90
18797;DHT22;9526;52.612;13.300;2023-08-30T14:00:47;24.50;99.90
18797;DHT22;9526;52.612;13.300;2023-08-30T14:03:11;24.60;99.90
18797;DHT22;9526;52.612;13.300;2023-08-30T14:05:35;24.40;99.90
18797;DHT22;9526;52.612;13.300;2023-08-30T14:08:04;24.40;99.90
18797;DHT22;9526;52.612;13.300;2023-08-30T14:10:28;24.40;99.90
18797;DHT22;9526;52.612;13.300;2023-08-30T14:12:52;24.20;99.90
18797;DHT22;9526;52.612;13.300;2023-08-30T14:15:16;24.00;99.90
18797;DHT22;9526;52.612;13.300;2023-08-30T14:17:41;24.20;99.90
18797;DHT22;9526;52.612;13.300;2023-08-30T14:20:06;24.50;99.90
18797;DHT22;9526;52.612;13.300;2023-08-30T14:22:32;24.50;99.90
18797;DHT22;9526;52.612;13.300;2023-08-30T14:24:57;24.30;99.90
18797;DHT22;9526;52.612;13.300;2023-08-30T14:27:33;24.60;99.90
18797;DHT22;9526;52.612;13.300;2023-08-30T14:29:57;24.70;99.90
18797;DHT22;9526;52.612;13.300;2023-08-30T14:32:22;24.50;99.90
18797;DHT22;9526;52.612;13.300;2023-08-30T14:34:46;24.60;99.90
18797;DHT22;9526;52.612;13.300;2023-08-30T14:37:09;24.50;99.90
18797;DHT22;9526;52.612;13.300;2023-08-30T14:39:33;24.10;99.90
18797;DHT22;9526;52.612;13.300;2023-08-30T14:41:58;24.20;99.90
18797;DHT22;9526;52.612;13.300;2023-08-30T14:44:22;24.30;99.90
18797;DHT22;9526;52.612;13.300;2023-08-30T14:46:47;24.00;99.90
18797;DHT22;9526;52.612;13.300;2023-08-30T14:49:11;24.20;99.90
18797;DHT22;9526;52.612;13.300;2023-08-30T14:51:35;24.00;99.90
18797;DHT22;9526;52.612;13.300;2023-08-30T14:53:59;24.00;99.90
18797;DHT22;9526;52.612;13.300;2023-08-30T14:56:22;23.90;99.90
18797;DHT22;9526;52.612;13.300;2023-08-30T14:58:47;23.80;99.90
18797;DHT22;9526;52.612;13.300;2023-08-30T15:01:13;23.80;99.90
18797;DHT22;9526;52.612;13.300;2023-08-30T15:03:36;23.90;99.90
18797;DHT22;9526;52.612;13.300;2023-08-30T15:06:00;23.90;99.90
18797;DHT22;9526;52.612;13.300;2023-08-30T15:08:24;23.90;99.90
18797;DHT22;9526;52.612;13.300;2023-08-30T15:10:48;23.80;99.90
18797;DHT22;9526;52.612;13.300;2023-08-30T15:13:13;23.80;99.90
18797;DHT22;9526;52.612;13.300;2023-08-30T15:15:38;23.70;99.90
18797;DHT22;9526;52.612;13.300;2023-08-30T15:18:02;23.70;99.90